Aviation Digital Data Service (ADDS)

Output produced by TAFs form (1355 UTC 23 April 2017)
found at http://aviationweather.gov/adds/tafs/
 
KMTJ 231123Z 2312/2412 14008KT P6SM SCT250 
     FM231800 23010KT P6SM FEW250 
     FM232000 22015G25KT P6SM SCT200 
     FM240200 20010KT P6SM SCT200 WS020/25030KT 
     FM240600 17006KT P6SM SCT200